createdAt,value
2023-03-21T00:02:32.028Z,10.90
2023-03-21T00:05:15.115Z,10.91
2023-03-21T00:07:47.714Z,10.89
2023-03-21T00:10:33.108Z,10.90
2023-03-21T00:13:14.050Z,10.82
2023-03-21T00:16:05.337Z,10.84
2023-03-21T00:18:46.377Z,10.77
2023-03-21T00:24:12.308Z,10.70
2023-03-21T00:26:44.907Z,10.65
2023-03-21T00:29:17.599Z,10.60
2023-03-21T00:31:51.539Z,10.58
2023-03-21T00:34:32.058Z,10.58
2023-03-21T00:37:16.803Z,10.60
2023-03-21T00:39:49.410Z,10.60
2023-03-21T00:42:21.211Z,10.59
2023-03-21T00:44:53.036Z,10.56
2023-03-21T00:47:25.915Z,10.51
2023-03-21T00:49:57.872Z,10.47
2023-03-21T00:52:40.676Z,10.43
2023-03-21T00:55:15.519Z,10.42
2023-03-21T00:57:50.224Z,10.42
2023-03-21T01:00:30.141Z,10.40
2023-03-21T01:03:17.668Z,10.42
2023-03-21T01:06:05.045Z,10.37
2023-03-21T01:08:58.103Z,10.38
2023-03-21T01:11:29.961Z,10.32
2023-03-21T01:14:18.599Z,10.27
2023-03-21T01:16:53.923Z,10.28
2023-03-21T01:19:48.730Z,10.21
2023-03-21T01:22:19.865Z,10.22
2023-03-21T01:24:58.553Z,10.26
2023-03-21T01:27:32.714Z,10.27
2023-03-21T01:30:11.227Z,10.27
2023-03-21T01:32:50.140Z,10.29
2023-03-21T01:35:21.812Z,10.33
2023-03-21T01:37:53.982Z,10.33
2023-03-21T01:40:27.114Z,10.35
2023-03-21T01:43:29.523Z,10.30
2023-03-21T01:46:08.692Z,10.27
2023-03-21T01:49:16.550Z,10.22
2023-03-21T01:51:58.634Z,10.20
2023-03-21T01:54:38.608Z,10.18
2023-03-21T01:57:22.609Z,10.16
2023-03-21T02:00:10.875Z,10.14
2023-03-21T02:02:52.651Z,10.11
2023-03-21T02:05:50.876Z,10.06
2023-03-21T02:08:30.511Z,10.03
2023-03-21T02:11:13.337Z,10.01
2023-03-21T02:13:50.179Z,9.97
2023-03-21T02:16:48.452Z,9.96
2023-03-21T02:19:31.970Z,9.93
2023-03-21T02:22:24.185Z,9.84
2023-03-21T02:25:22.092Z,9.76
2023-03-21T02:28:17.450Z,9.77
2023-03-21T02:31:10.892Z,9.67
2023-03-21T02:34:00.885Z,9.63
2023-03-21T02:37:04.827Z,9.61
2023-03-21T02:40:14.386Z,9.61
2023-03-21T02:43:23.425Z,9.53
2023-03-21T02:46:14.670Z,9.49
2023-03-21T02:49:01.045Z,9.49
2023-03-21T02:51:34.505Z,9.52
2023-03-21T02:54:45.280Z,9.53
2023-03-21T02:57:06.044Z,9.56
2023-03-21T02:59:44.480Z,9.54
2023-03-21T03:02:28.589Z,9.54
2023-03-21T03:05:00.692Z,9.52
2023-03-21T03:07:53.668Z,9.44
2023-03-21T03:10:59.810Z,9.43
2023-03-21T03:13:34.235Z,9.46
2023-03-21T03:16:15.551Z,9.47
2023-03-21T03:18:54.309Z,9.37
2023-03-21T03:21:29.085Z,9.38
2023-03-21T03:24:17.250Z,9.37
2023-03-21T03:26:59.363Z,9.35
2023-03-21T03:29:37.305Z,9.27
2023-03-21T03:32:20.379Z,9.22
2023-03-21T03:34:57.057Z,9.22
2023-03-21T03:37:37.431Z,9.21
2023-03-21T03:40:15.372Z,9.23
2023-03-21T03:42:53.862Z,9.23
2023-03-21T03:45:42.974Z,9.20
2023-03-21T03:48:22.270Z,9.18
2023-03-21T03:51:03.467Z,9.17
2023-03-21T03:54:03.800Z,9.17
2023-03-21T03:56:36.584Z,9.19
2023-03-21T03:59:08.403Z,9.17
2023-03-21T04:02:09.435Z,9.17
2023-03-21T04:04:42.194Z,9.16
2023-03-21T04:07:14.317Z,9.16
2023-03-21T04:09:46.792Z,9.15
2023-03-21T04:12:22.225Z,9.14
2023-03-21T04:15:17.211Z,9.06
2023-03-21T04:17:54.124Z,9.05
2023-03-21T04:20:36.190Z,9.04
2023-03-21T04:23:09.104Z,9.06
2023-03-21T04:25:54.009Z,9.04
2023-03-21T04:28:29.786Z,9.04
2023-03-21T04:31:22.666Z,9.06
2023-03-21T04:33:59.604Z,9.09
2023-03-21T04:36:38.854Z,9.11
2023-03-21T04:39:13.404Z,9.10
2023-03-21T04:41:47.040Z,9.11
2023-03-21T04:44:19.335Z,9.12
2023-03-21T04:46:52.132Z,9.13
2023-03-21T04:49:23.865Z,9.06
2023-03-21T04:51:56.246Z,9.03
2023-03-21T04:54:27.986Z,9.00
2023-03-21T04:57:00.029Z,9.00
2023-03-21T04:59:32.583Z,8.95
2023-03-21T05:02:04.398Z,8.95
2023-03-21T05:04:36.368Z,8.93
2023-03-21T05:07:08.456Z,8.92
2023-03-21T05:09:40.715Z,8.93
2023-03-21T05:12:12.570Z,8.96
2023-03-21T05:14:44.574Z,9.01
2023-03-21T05:17:24.905Z,8.97
2023-03-21T05:19:59.766Z,8.94
2023-03-21T05:22:40.333Z,8.95
2023-03-21T05:25:18.237Z,8.95
2023-03-21T05:28:06.309Z,8.96
2023-03-21T05:30:39.008Z,8.96
2023-03-21T05:33:14.814Z,9.00
2023-03-21T05:35:46.554Z,9.02
2023-03-21T05:38:18.299Z,9.01
2023-03-21T05:40:55.401Z,9.01
2023-03-21T05:43:27.310Z,9.00
2023-03-21T05:45:59.518Z,9.03
2023-03-21T05:48:34.771Z,9.02
2023-03-21T05:51:21.307Z,9.04
2023-03-21T05:53:53.052Z,9.13
2023-03-21T05:56:26.234Z,9.19
2023-03-21T05:59:02.220Z,9.28
2023-03-21T06:01:36.689Z,9.32
2023-03-21T06:04:16.499Z,9.45
2023-03-21T06:06:48.576Z,9.54
2023-03-21T06:09:22.571Z,9.65
2023-03-21T06:11:59.502Z,9.71
2023-03-21T06:14:47.642Z,9.70
2023-03-21T06:17:38.510Z,9.79
2023-03-21T06:20:14.476Z,9.87
2023-03-21T06:22:51.283Z,9.99
2023-03-21T06:25:23.326Z,10.08
2023-03-21T06:27:55.453Z,10.10
2023-03-21T06:30:27.318Z,10.16
2023-03-21T06:33:11.247Z,10.21
2023-03-21T06:35:43.040Z,10.28
2023-03-21T06:38:14.960Z,10.39
2023-03-21T06:40:50.254Z,10.44
2023-03-21T06:43:24.698Z,10.57
2023-03-21T06:45:56.651Z,10.68
2023-03-21T06:48:28.762Z,10.76
2023-03-21T06:51:04.863Z,10.84
2023-03-21T06:53:38.461Z,10.99
2023-03-21T06:56:25.467Z,11.17
2023-03-21T06:58:57.270Z,11.28
2023-03-21T07:01:48.802Z,11.53
2023-03-21T07:04:20.657Z,11.63
2023-03-21T07:06:53.046Z,11.61
2023-03-21T07:09:28.220Z,11.63
2023-03-21T07:12:03.588Z,11.70
2023-03-21T07:14:48.287Z,11.86
2023-03-21T07:17:20.376Z,12.05
2023-03-21T07:19:55.048Z,12.21
2023-03-21T07:22:26.745Z,12.19
2023-03-21T07:25:04.803Z,12.24
2023-03-21T07:27:42.957Z,12.34
2023-03-21T07:30:15.921Z,12.77
2023-03-21T07:32:48.924Z,13.31
2023-03-21T07:35:23.952Z,13.79
2023-03-21T07:37:55.871Z,14.11
2023-03-21T07:40:28.291Z,14.32
2023-03-21T07:43:00.183Z,14.59
2023-03-21T07:45:38.779Z,14.79
2023-03-21T07:48:13.890Z,14.96
2023-03-21T07:50:46.656Z,15.09
2023-03-21T07:53:18.783Z,15.17
2023-03-21T07:55:52.397Z,15.29
2023-03-21T07:58:25.922Z,15.34
2023-03-21T08:00:58.688Z,15.41
2023-03-21T08:03:32.675Z,15.51
2023-03-21T08:06:04.874Z,15.62
2023-03-21T08:08:36.631Z,15.37
2023-03-21T08:11:08.373Z,15.37
2023-03-21T08:13:40.652Z,15.36
2023-03-21T08:16:12.503Z,15.45
2023-03-21T08:18:44.142Z,15.71
2023-03-21T08:21:16.034Z,15.95
2023-03-21T08:23:47.680Z,16.00
2023-03-21T08:26:19.448Z,16.16
2023-03-21T08:28:51.098Z,16.54
2023-03-21T08:31:23.029Z,16.61
2023-03-21T08:33:55.756Z,16.73
2023-03-21T08:36:27.568Z,17.19
2023-03-21T08:39:05.468Z,17.30
2023-03-21T08:41:38.139Z,17.12
2023-03-21T08:44:10.281Z,16.75
2023-03-21T08:46:42.078Z,16.89
2023-03-21T08:49:13.859Z,17.46
2023-03-21T08:51:45.947Z,18.42
2023-03-21T08:54:27.989Z,19.22
2023-03-21T08:56:59.851Z,19.99
2023-03-21T08:59:31.599Z,20.18
2023-03-21T09:02:03.618Z,20.69
2023-03-21T09:04:35.585Z,21.10
2023-03-21T09:07:07.628Z,21.34
2023-03-21T09:09:39.576Z,21.58
2023-03-21T09:12:11.377Z,21.61
2023-03-21T09:14:43.197Z,21.58
2023-03-21T09:17:19.308Z,21.65
2023-03-21T09:19:53.463Z,21.61
2023-03-21T09:22:25.986Z,21.78
2023-03-21T09:24:57.705Z,22.25
2023-03-21T09:27:29.464Z,22.43
2023-03-21T09:30:01.179Z,22.28
2023-03-21T09:32:34.182Z,22.09
2023-03-21T09:35:07.918Z,21.93
2023-03-21T09:37:42.355Z,22.06
2023-03-21T09:40:20.661Z,22.23
2023-03-21T09:42:59.089Z,22.09
2023-03-21T09:45:43.469Z,22.26
2023-03-21T09:48:56.027Z,22.50
2023-03-21T09:51:42.998Z,22.74
2023-03-21T09:54:23.889Z,22.72
2023-03-21T09:56:58.853Z,22.63
2023-03-21T09:59:40.245Z,22.52
2023-03-21T10:02:39.324Z,21.88
2023-03-21T10:05:20.684Z,21.30
2023-03-21T10:08:16.064Z,21.02
2023-03-21T10:10:51.960Z,20.92
2023-03-21T10:13:29.757Z,20.72
2023-03-21T10:16:28.139Z,20.65
2023-03-21T10:19:04.761Z,20.88
2023-03-21T10:24:34.007Z,21.07
2023-03-21T10:27:05.858Z,20.99
2023-03-21T10:29:47.162Z,20.77
2023-03-21T10:32:19.389Z,20.76
2023-03-21T10:37:28.367Z,21.21
2023-03-21T10:40:00.182Z,21.06
2023-03-21T10:42:33.897Z,21.41
2023-03-21T10:45:16.662Z,21.67
2023-03-21T10:47:53.074Z,21.91
2023-03-21T10:50:29.924Z,22.18
2023-03-21T10:53:02.120Z,22.48
2023-03-21T10:55:35.861Z,22.85
2023-03-21T10:58:11.013Z,23.27
2023-03-21T11:00:45.108Z,23.70
2023-03-21T11:03:29.508Z,23.71
2023-03-21T11:06:11.825Z,23.03
2023-03-21T11:08:50.458Z,23.02
2023-03-21T11:11:28.315Z,22.97
2023-03-21T11:14:09.343Z,23.18
2023-03-21T11:16:44.096Z,23.41
2023-03-21T11:19:18.802Z,23.54
2023-03-21T11:21:51.181Z,23.70
2023-03-21T11:24:22.962Z,23.70
2023-03-21T11:26:56.817Z,23.50
2023-03-21T11:29:38.869Z,22.77
2023-03-21T11:32:31.025Z,22.97
2023-03-21T11:35:23.665Z,23.45
2023-03-21T11:37:56.558Z,23.67
2023-03-21T11:40:33.569Z,23.52
2023-03-21T11:43:18.051Z,23.70
2023-03-21T11:46:01.252Z,23.73
2023-03-21T11:48:40.909Z,23.57
2023-03-21T11:51:46.302Z,23.60
2023-03-21T11:54:36.013Z,23.85
2023-03-21T11:57:37.997Z,23.26
2023-03-21T12:00:26.931Z,22.87
2023-03-21T12:03:30.749Z,23.43
2023-03-21T12:06:33.055Z,23.63
2023-03-21T12:09:25.753Z,23.32
2023-03-21T12:12:12.827Z,22.98
2023-03-21T12:14:50.379Z,23.07
2023-03-21T12:17:47.080Z,22.94
2023-03-21T12:20:47.201Z,22.53
2023-03-21T12:23:37.901Z,22.24
2023-03-21T12:26:20.056Z,22.20
2023-03-21T12:28:54.661Z,22.39
2023-03-21T12:31:32.311Z,21.61
2023-03-21T12:34:37.898Z,20.58
2023-03-21T12:37:09.525Z,19.87
2023-03-21T12:39:41.672Z,19.83
2023-03-21T12:42:13.302Z,20.12
2023-03-21T12:45:06.292Z,20.47
2023-03-21T12:47:51.625Z,20.41
2023-03-21T12:50:29.846Z,20.33
2023-03-21T12:53:16.450Z,20.42
2023-03-21T12:55:48.174Z,20.54
2023-03-21T12:58:28.336Z,20.31
2023-03-21T13:01:03.771Z,20.67
2023-03-21T13:03:45.338Z,20.73
2023-03-21T13:06:23.907Z,20.65
2023-03-21T13:09:28.364Z,20.19
2023-03-21T13:12:20.648Z,19.95
2023-03-21T13:15:31.459Z,19.80
2023-03-21T13:18:25.998Z,19.87
2023-03-21T13:21:25.761Z,20.13
2023-03-21T13:24:17.375Z,20.06
2023-03-21T13:26:51.186Z,20.34
2023-03-21T13:29:33.396Z,20.36
2023-03-21T13:32:10.251Z,20.74
2023-03-21T13:34:44.628Z,21.24
2023-03-21T13:37:19.423Z,21.07
2023-03-21T13:39:51.610Z,20.75
2023-03-21T13:42:29.403Z,20.63
2023-03-21T13:45:02.480Z,20.47
2023-03-21T13:47:34.199Z,20.51
2023-03-21T13:50:17.938Z,20.43
2023-03-21T13:53:14.208Z,20.07
2023-03-21T13:55:57.498Z,20.02
2023-03-21T13:58:38.563Z,19.53
2023-03-21T14:01:20.529Z,18.97
2023-03-21T14:04:27.169Z,18.66
2023-03-21T14:07:27.773Z,18.74
2023-03-21T14:10:08.618Z,18.58
2023-03-21T14:12:43.720Z,18.50
2023-03-21T14:15:21.998Z,18.30
2023-03-21T14:18:06.381Z,18.28
2023-03-21T14:20:57.303Z,18.09
2023-03-21T14:23:29.001Z,17.89
2023-03-21T14:26:00.731Z,17.89
2023-03-21T14:28:33.435Z,17.83
2023-03-21T14:31:05.641Z,17.81
2023-03-21T14:33:41.614Z,17.97
2023-03-21T14:36:23.946Z,18.08
2023-03-21T14:39:05.240Z,18.27
2023-03-21T14:41:46.416Z,18.28
2023-03-21T14:44:26.182Z,18.22
2023-03-21T14:47:07.172Z,18.08
2023-03-21T14:49:38.884Z,17.98
2023-03-21T14:52:15.322Z,17.93
2023-03-21T14:54:48.212Z,18.04
2023-03-21T14:57:23.305Z,18.16
2023-03-21T14:59:59.558Z,18.05
2023-03-21T15:02:38.741Z,17.88
2023-03-21T15:05:26.283Z,17.83
2023-03-21T15:08:02.146Z,17.69
2023-03-21T15:10:34.333Z,17.44
2023-03-21T15:13:19.410Z,17.35
2023-03-21T15:15:52.187Z,17.22
2023-03-21T15:18:39.220Z,17.17
2023-03-21T15:21:19.929Z,17.08
2023-03-21T15:23:56.039Z,17.00
2023-03-21T15:26:31.686Z,16.94
2023-03-21T15:29:06.739Z,16.87
2023-03-21T15:31:40.693Z,16.84
2023-03-21T15:34:28.608Z,16.76
2023-03-21T15:37:08.545Z,16.74
2023-03-21T15:39:40.722Z,16.70
2023-03-21T15:42:41.093Z,16.63
2023-03-21T15:45:22.650Z,16.53
2023-03-21T15:48:03.276Z,16.55
2023-03-21T15:50:38.830Z,16.57
2023-03-21T15:53:20.305Z,16.54
2023-03-21T15:55:56.972Z,16.53
2023-03-21T15:58:41.951Z,16.52
2023-03-21T16:01:19.971Z,16.62
2023-03-21T16:04:05.650Z,16.62
2023-03-21T16:06:39.578Z,16.66
2023-03-21T16:09:23.519Z,16.64
2023-03-21T16:11:58.725Z,16.62
2023-03-21T16:14:30.590Z,16.59
2023-03-21T16:17:23.843Z,16.49
2023-03-21T16:19:57.635Z,16.45
2023-03-21T16:22:34.839Z,16.47
2023-03-21T16:25:07.107Z,16.37
2023-03-21T16:27:39.117Z,16.31
2023-03-21T16:30:15.217Z,16.20
2023-03-21T16:32:47.859Z,16.15
2023-03-21T16:35:22.402Z,16.06
2023-03-21T16:37:55.326Z,16.04
2023-03-21T16:40:32.693Z,16.04
2023-03-21T16:43:04.689Z,16.04
2023-03-21T16:45:37.047Z,16.01
2023-03-21T16:48:16.044Z,15.90
2023-03-21T16:50:48.331Z,15.82
2023-03-21T16:53:19.983Z,15.68
2023-03-21T16:55:52.689Z,15.65
2023-03-21T16:58:24.545Z,15.60
2023-03-21T17:00:56.936Z,15.57
2023-03-21T17:03:28.712Z,15.57
2023-03-21T17:06:01.720Z,15.45
2023-03-21T17:08:33.458Z,15.46
2023-03-21T17:11:06.602Z,15.43
2023-03-21T17:13:39.092Z,15.44
2023-03-21T17:16:15.798Z,15.39
2023-03-21T17:18:48.345Z,15.33
2023-03-21T17:21:23.540Z,15.23
2023-03-21T17:23:56.082Z,15.26
2023-03-21T17:26:29.300Z,15.17
2023-03-21T17:29:01.540Z,15.15
2023-03-21T17:31:35.945Z,15.10
2023-03-21T17:34:08.525Z,15.11
2023-03-21T17:36:42.382Z,15.09
2023-03-21T17:39:22.803Z,15.04
2023-03-21T17:41:55.258Z,15.00
2023-03-21T17:44:27.033Z,14.93
2023-03-21T17:46:58.771Z,14.95
2023-03-21T17:49:31.047Z,14.93
2023-03-21T17:52:03.012Z,14.86
2023-03-21T17:54:34.655Z,14.85
2023-03-21T17:57:06.429Z,14.84
2023-03-21T17:59:38.484Z,14.78
2023-03-21T18:02:10.503Z,14.69
2023-03-21T18:04:45.558Z,14.70
2023-03-21T18:07:29.689Z,14.69
2023-03-21T18:10:15.435Z,14.66
2023-03-21T18:12:47.468Z,14.64
2023-03-21T18:15:20.952Z,14.68
2023-03-21T18:17:54.029Z,14.70
2023-03-21T18:20:50.265Z,14.67
2023-03-21T18:23:21.737Z,14.60
2023-03-21T18:25:53.828Z,14.61
2023-03-21T18:28:26.060Z,14.60
2023-03-21T18:31:10.304Z,14.62
2023-03-21T18:33:47.159Z,14.61
2023-03-21T18:36:25.334Z,14.62
2023-03-21T18:39:02.692Z,14.64
2023-03-21T18:41:35.078Z,14.65
2023-03-21T18:44:13.444Z,14.69
2023-03-21T18:46:50.577Z,14.70
2023-03-21T18:52:14.108Z,14.76
2023-03-21T18:54:48.057Z,14.78
2023-03-21T18:57:35.820Z,14.78
2023-03-21T19:00:12.817Z,14.80
2023-03-21T19:02:48.354Z,14.82
2023-03-21T19:05:22.735Z,14.82
2023-03-21T19:07:54.486Z,14.83
2023-03-21T19:10:26.186Z,14.83
2023-03-21T19:12:57.881Z,14.85
2023-03-21T19:15:29.899Z,14.85
2023-03-21T19:20:54.611Z,14.75
2023-03-21T19:23:39.903Z,14.77
2023-03-21T19:26:17.971Z,14.75
2023-03-21T19:28:52.644Z,14.79
2023-03-21T19:31:24.795Z,14.74
2023-03-21T19:33:57.112Z,14.75
2023-03-21T19:36:28.922Z,14.64
2023-03-21T19:39:00.788Z,14.62
2023-03-21T19:41:32.579Z,14.63
2023-03-21T19:44:05.335Z,14.65
2023-03-21T19:46:37.079Z,14.65
2023-03-21T19:49:08.882Z,14.65
2023-03-21T19:51:40.704Z,14.64
2023-03-21T19:54:12.613Z,14.62
2023-03-21T19:56:47.638Z,14.59
2023-03-21T19:59:20.539Z,14.58
2023-03-21T20:01:56.435Z,14.51
2023-03-21T20:04:29.235Z,14.47
2023-03-21T20:07:01.417Z,14.44
2023-03-21T20:09:52.581Z,14.45
2023-03-21T20:12:24.804Z,14.44
2023-03-21T20:15:09.560Z,14.45
2023-03-21T20:17:48.427Z,14.47
2023-03-21T20:20:20.282Z,14.49
2023-03-21T20:23:06.981Z,14.51
2023-03-21T20:25:44.964Z,14.50
2023-03-21T20:28:25.049Z,14.48
2023-03-21T20:31:00.483Z,14.50
2023-03-21T20:33:32.960Z,14.50
2023-03-21T20:36:37.738Z,14.49
2023-03-21T20:38:58.852Z,14.49
2023-03-21T20:41:30.582Z,14.48
2023-03-21T20:46:53.963Z,14.49
2023-03-21T20:49:29.541Z,14.49
2023-03-21T20:52:49.694Z,14.50
2023-03-21T20:54:57.500Z,14.50
2023-03-21T20:57:30.161Z,14.49
2023-03-21T21:00:01.930Z,14.47
2023-03-21T21:02:33.642Z,14.46
2023-03-21T21:05:27.765Z,14.45
2023-03-21T21:07:59.245Z,14.43
2023-03-21T21:10:33.546Z,14.42
2023-03-21T21:13:07.466Z,14.39
2023-03-21T21:15:39.250Z,14.38
2023-03-21T21:18:12.389Z,14.32
2023-03-21T21:20:44.996Z,14.29
2023-03-21T21:23:16.719Z,14.24
2023-03-21T21:25:53.408Z,14.22
2023-03-21T21:28:28.850Z,14.20
2023-03-21T21:31:12.295Z,14.17
2023-03-21T21:33:46.305Z,14.14
2023-03-21T21:36:18.208Z,14.08
2023-03-21T21:38:50.189Z,14.04
2023-03-21T21:41:24.089Z,14.01
2023-03-21T21:43:55.930Z,13.97
2023-03-21T21:46:29.973Z,13.93
2023-03-21T21:49:02.449Z,13.88
2023-03-21T21:51:35.041Z,13.85
2023-03-21T21:54:06.754Z,13.78
2023-03-21T21:56:38.714Z,13.72
2023-03-21T21:59:10.469Z,13.66
2023-03-21T22:01:42.489Z,13.60
2023-03-21T22:04:14.616Z,13.55
2023-03-21T22:06:47.649Z,13.48
2023-03-21T22:09:19.620Z,13.47
2023-03-21T22:11:55.406Z,13.47
2023-03-21T22:14:27.168Z,13.35
2023-03-21T22:16:59.985Z,13.31
2023-03-21T22:19:31.862Z,13.27
2023-03-21T22:22:04.912Z,13.25
2023-03-21T22:24:37.540Z,13.26
2023-03-21T22:27:09.381Z,13.22
2023-03-21T22:29:44.045Z,13.23
2023-03-21T22:32:16.027Z,13.23
2023-03-21T22:34:57.704Z,13.20
2023-03-21T22:37:32.406Z,13.15
2023-03-21T22:40:11.959Z,13.11
2023-03-21T22:42:46.815Z,13.06
2023-03-21T22:45:18.608Z,13.02
2023-03-21T22:47:59.913Z,13.02
2023-03-21T22:50:32.212Z,13.02
2023-03-21T22:53:12.148Z,13.03
2023-03-21T22:55:47.748Z,12.99
2023-03-21T22:58:27.937Z,13.01
2023-03-21T23:01:05.184Z,12.99
2023-03-21T23:03:37.138Z,13.01
2023-03-21T23:06:08.980Z,12.97
2023-03-21T23:08:40.829Z,12.94
2023-03-21T23:11:12.889Z,12.89
2023-03-21T23:13:46.785Z,12.88
2023-03-21T23:16:19.247Z,12.87
2023-03-21T23:18:53.713Z,12.89
2023-03-21T23:21:25.472Z,12.88
2023-03-21T23:23:57.279Z,12.82
2023-03-21T23:26:29.020Z,12.79
2023-03-21T23:29:00.732Z,12.82
2023-03-21T23:31:33.198Z,12.84
2023-03-21T23:34:05.825Z,12.88
2023-03-21T23:36:37.635Z,12.92
2023-03-21T23:39:09.353Z,12.96
2023-03-21T23:41:42.822Z,12.97
2023-03-21T23:44:15.382Z,12.94
2023-03-21T23:46:47.101Z,12.90
2023-03-21T23:49:18.995Z,12.90
2023-03-21T23:51:50.881Z,12.92
2023-03-21T23:54:22.581Z,12.88
2023-03-21T23:56:58.230Z,12.85
2023-03-21T23:59:30.600Z,12.85
